createdAt,value
2022-09-29T00:00:19.030Z,0.00
2022-09-29T00:01:18.997Z,0.00
2022-09-29T00:02:18.986Z,0.00
2022-09-29T00:03:19.030Z,0.00
2022-09-29T00:04:18.967Z,0.00
2022-09-29T00:05:19.009Z,0.00
2022-09-29T00:06:18.947Z,0.00
2022-09-29T00:07:18.926Z,0.00
2022-09-29T00:08:18.926Z,0.00
2022-09-29T00:09:18.973Z,0.00
2022-09-29T00:10:18.897Z,0.00
2022-09-29T00:11:18.943Z,0.00
2022-09-29T00:12:18.877Z,0.00
2022-09-29T00:13:18.867Z,0.00
2022-09-29T00:14:18.966Z,0.00
2022-09-29T00:15:18.850Z,0.00
2022-09-29T00:16:18.873Z,0.00
2022-09-29T00:17:18.839Z,0.00
2022-09-29T00:18:18.806Z,0.00
2022-09-29T00:19:18.797Z,0.00
2022-09-29T00:20:18.785Z,0.00
2022-09-29T00:21:18.774Z,0.00
2022-09-29T00:22:18.785Z,0.00
2022-09-29T00:23:18.747Z,0.00
2022-09-29T00:24:18.877Z,0.00
2022-09-29T00:25:18.731Z,0.00
2022-09-29T00:26:18.722Z,0.00
2022-09-29T00:27:18.706Z,0.00
2022-09-29T00:28:18.726Z,0.00
2022-09-29T00:29:18.686Z,0.00
2022-09-29T00:30:18.674Z,0.00
2022-09-29T00:31:18.706Z,0.00
2022-09-29T00:32:18.656Z,0.00
2022-09-29T00:33:18.636Z,0.00
2022-09-29T00:34:18.692Z,0.00
2022-09-29T00:35:18.616Z,0.00
2022-09-29T00:36:18.606Z,0.00
2022-09-29T00:37:18.593Z,0.00
2022-09-29T00:38:18.585Z,0.00
2022-09-29T00:39:18.605Z,0.00
2022-09-29T00:40:18.651Z,0.00
2022-09-29T00:41:18.547Z,0.00
2022-09-29T00:42:18.537Z,0.00
2022-09-29T00:43:18.525Z,0.00
2022-09-29T00:44:18.641Z,0.00
2022-09-29T00:45:18.526Z,0.00
2022-09-29T00:46:18.499Z,0.00
2022-09-29T00:47:18.477Z,0.00
2022-09-29T00:48:18.465Z,0.00
2022-09-29T00:49:18.455Z,0.00
2022-09-29T00:50:18.445Z,0.00
2022-09-29T00:51:18.457Z,0.00
2022-09-29T00:52:18.426Z,0.00
2022-09-29T00:53:21.533Z,0.00
2022-09-29T00:54:18.592Z,0.00
2022-09-29T00:55:18.388Z,0.00
2022-09-29T00:56:18.385Z,0.00
2022-09-29T00:57:18.393Z,0.00
2022-09-29T00:58:18.356Z,0.00
2022-09-29T00:59:18.338Z,0.00
2022-09-29T01:00:18.341Z,0.00
2022-09-29T01:01:18.364Z,0.00
2022-09-29T01:02:18.371Z,0.00
2022-09-29T01:03:18.316Z,0.00
2022-09-29T01:04:18.284Z,0.00
2022-09-29T01:05:18.275Z,0.00
2022-09-29T01:06:18.264Z,0.00
2022-09-29T01:07:18.245Z,0.00
2022-09-29T01:08:18.234Z,0.00
2022-09-29T01:09:18.273Z,0.00
2022-09-29T01:10:18.213Z,0.00
2022-09-29T01:11:18.196Z,0.00
2022-09-29T01:12:18.193Z,0.00
2022-09-29T01:13:18.175Z,0.00
2022-09-29T01:14:18.169Z,0.00
2022-09-29T01:15:18.175Z,0.00
2022-09-29T01:16:18.207Z,0.00
2022-09-29T01:17:18.124Z,0.00
2022-09-29T01:18:18.126Z,0.00
2022-09-29T01:19:18.114Z,0.00
2022-09-29T01:20:18.140Z,0.00
2022-09-29T01:21:18.082Z,0.00
2022-09-29T01:22:18.074Z,0.00
2022-09-29T01:23:18.064Z,0.00
2022-09-29T01:24:18.053Z,0.00
2022-09-29T01:25:18.043Z,0.00
2022-09-29T01:26:18.059Z,0.00
2022-09-29T01:27:18.015Z,0.00
2022-09-29T01:28:18.012Z,0.00
2022-09-29T01:29:17.984Z,0.00
2022-09-29T01:30:17.997Z,0.00
2022-09-29T01:31:18.042Z,0.00
2022-09-29T01:32:17.954Z,0.00
2022-09-29T01:33:17.945Z,0.00
2022-09-29T01:34:17.983Z,0.00
2022-09-29T01:35:17.914Z,0.00
2022-09-29T01:36:17.907Z,0.00
2022-09-29T01:37:17.923Z,0.00
2022-09-29T01:38:17.884Z,0.00
2022-09-29T01:39:17.876Z,0.00
2022-09-29T01:40:17.932Z,0.00
2022-09-29T01:41:17.851Z,0.00
2022-09-29T01:42:17.835Z,0.00
2022-09-29T01:43:17.843Z,0.00
2022-09-29T01:44:17.814Z,0.00
2022-09-29T01:45:17.804Z,0.00
2022-09-29T01:46:17.876Z,0.00
2022-09-29T01:47:17.773Z,0.00
2022-09-29T01:48:17.807Z,0.00
2022-09-29T01:49:17.759Z,0.00
2022-09-29T01:50:17.748Z,0.00
2022-09-29T01:51:17.724Z,0.00
2022-09-29T01:52:17.734Z,0.00
2022-09-29T01:53:17.710Z,0.00
2022-09-29T01:54:17.758Z,0.00
2022-09-29T01:55:17.684Z,0.00
2022-09-29T01:56:17.674Z,0.00
2022-09-29T01:57:17.665Z,0.00
2022-09-29T01:58:17.654Z,0.00
2022-09-29T01:59:17.635Z,0.00
2022-09-29T02:00:17.658Z,0.00
2022-09-29T02:01:17.681Z,0.00
2022-09-29T02:02:17.677Z,0.00
2022-09-29T02:03:17.593Z,0.00
2022-09-29T02:04:17.670Z,0.00
2022-09-29T02:05:17.564Z,0.00
2022-09-29T02:06:17.580Z,0.00
2022-09-29T02:07:17.542Z,0.00
2022-09-29T02:08:17.532Z,0.00
2022-09-29T02:09:17.520Z,0.00
2022-09-29T02:10:17.512Z,0.00
2022-09-29T02:11:17.493Z,0.00
2022-09-29T02:12:17.536Z,0.00
2022-09-29T02:13:17.472Z,0.00
2022-09-29T02:14:17.502Z,0.00
2022-09-29T02:15:17.449Z,0.00
2022-09-29T02:16:17.505Z,0.00
2022-09-29T02:17:17.429Z,0.00
2022-09-29T02:18:17.431Z,0.00
2022-09-29T02:19:17.400Z,0.00
2022-09-29T02:20:17.392Z,0.00
2022-09-29T02:21:17.385Z,0.00
2022-09-29T02:22:17.373Z,0.00
2022-09-29T02:23:17.381Z,0.00
2022-09-29T02:24:17.409Z,0.00
2022-09-29T02:25:17.334Z,0.00
2022-09-29T02:26:17.330Z,0.00
2022-09-29T02:27:17.312Z,0.00
2022-09-29T02:28:17.304Z,0.00
2022-09-29T02:29:17.310Z,0.00
2022-09-29T02:30:17.281Z,0.00
2022-09-29T02:31:17.335Z,0.00
2022-09-29T02:32:17.263Z,0.00
2022-09-29T02:33:17.241Z,0.00
2022-09-29T02:34:17.308Z,0.00
2022-09-29T02:35:17.223Z,0.00
2022-09-29T02:36:17.225Z,0.00
2022-09-29T02:37:17.214Z,0.00
2022-09-29T02:38:17.189Z,0.00
2022-09-29T02:39:17.181Z,0.00
2022-09-29T02:40:17.263Z,0.00
2022-09-29T02:41:17.150Z,0.00
2022-09-29T02:42:17.141Z,0.00
2022-09-29T02:43:17.131Z,0.00
2022-09-29T02:44:17.181Z,0.00
2022-09-29T02:45:17.112Z,0.00
2022-09-29T02:46:17.122Z,0.00
2022-09-29T02:47:17.089Z,0.00
2022-09-29T02:48:17.082Z,0.00
2022-09-29T02:49:17.071Z,0.00
2022-09-29T02:50:17.062Z,0.00
2022-09-29T02:51:17.041Z,0.00
2022-09-29T02:52:17.061Z,0.00
2022-09-29T02:53:17.023Z,0.00
2022-09-29T02:54:17.047Z,0.00
2022-09-29T02:55:16.997Z,0.00
2022-09-29T02:56:16.991Z,0.00
2022-09-29T02:57:16.980Z,0.00
2022-09-29T02:58:16.980Z,0.00
2022-09-29T02:59:16.959Z,0.00
2022-09-29T03:00:16.955Z,0.00
2022-09-29T03:01:16.991Z,0.00
2022-09-29T03:02:16.930Z,0.00
2022-09-29T03:03:16.951Z,0.00
2022-09-29T03:04:16.900Z,0.00
2022-09-29T03:05:16.890Z,0.00
2022-09-29T03:06:16.878Z,0.00
2022-09-29T03:07:16.869Z,0.00
2022-09-29T03:08:16.859Z,0.00
2022-09-29T03:09:16.869Z,0.00
2022-09-29T03:10:16.839Z,0.00
2022-09-29T03:11:16.818Z,0.00
2022-09-29T03:12:23.851Z,0.00
2022-09-29T03:13:16.801Z,0.00
2022-09-29T03:14:16.822Z,0.00
2022-09-29T03:15:16.849Z,0.00
2022-09-29T03:16:16.823Z,0.00
2022-09-29T03:17:16.761Z,0.00
2022-09-29T03:18:16.742Z,0.00
2022-09-29T03:19:16.755Z,0.00
2022-09-29T03:20:16.735Z,0.00
2022-09-29T03:21:16.739Z,0.00
2022-09-29T03:22:16.700Z,0.00
2022-09-29T03:23:16.701Z,0.00
2022-09-29T03:24:16.716Z,0.00
2022-09-29T03:25:16.681Z,0.00
2022-09-29T03:26:16.695Z,0.00
2022-09-29T03:27:16.651Z,0.00
2022-09-29T03:28:16.639Z,0.00
2022-09-29T03:29:16.646Z,0.00
2022-09-29T03:30:16.611Z,0.00
2022-09-29T03:31:16.665Z,0.00
2022-09-29T03:32:16.621Z,0.00
2022-09-29T03:33:16.604Z,0.00
2022-09-29T03:34:16.571Z,0.00
2022-09-29T03:35:16.570Z,0.00
2022-09-29T03:36:16.555Z,0.00
2022-09-29T03:37:16.551Z,0.00
2022-09-29T03:38:16.554Z,0.00
2022-09-29T03:39:16.555Z,0.00
2022-09-29T03:40:16.514Z,0.00
2022-09-29T03:41:16.503Z,0.00
2022-09-29T03:42:16.480Z,0.00
2022-09-29T03:43:16.478Z,0.00
2022-09-29T03:44:16.480Z,0.00
2022-09-29T03:45:16.469Z,0.00
2022-09-29T03:46:16.670Z,0.00
2022-09-29T03:47:16.479Z,0.00
2022-09-29T03:48:16.419Z,0.00
2022-09-29T03:49:16.463Z,0.00
2022-09-29T03:50:16.410Z,0.00
2022-09-29T03:51:16.396Z,0.00
2022-09-29T03:52:16.377Z,0.00
2022-09-29T03:53:16.368Z,0.00
2022-09-29T03:54:16.348Z,0.00
2022-09-29T03:55:16.382Z,0.00
2022-09-29T03:56:16.358Z,0.00
2022-09-29T03:57:16.328Z,0.00
2022-09-29T03:58:16.310Z,0.00
2022-09-29T03:59:16.346Z,0.00
2022-09-29T04:00:16.293Z,0.00
2022-09-29T04:01:16.419Z,0.00
2022-09-29T04:02:16.340Z,0.00
2022-09-29T04:03:16.259Z,0.00
2022-09-29T04:04:16.240Z,0.00
2022-09-29T04:05:16.230Z,0.00
2022-09-29T04:06:16.227Z,0.00
2022-09-29T04:07:16.258Z,0.00
2022-09-29T04:08:16.208Z,0.00
2022-09-29T04:09:16.269Z,0.00
2022-09-29T04:10:16.168Z,0.00
2022-09-29T04:11:16.168Z,0.00
2022-09-29T04:12:16.157Z,0.00
2022-09-29T04:13:19.799Z,0.00
2022-09-29T04:14:16.139Z,0.00
2022-09-29T04:15:16.129Z,0.00
2022-09-29T04:16:16.186Z,0.00
2022-09-29T04:17:16.097Z,0.00
2022-09-29T04:18:16.109Z,0.00
2022-09-29T04:19:16.186Z,0.00
2022-09-29T04:20:16.078Z,0.00
2022-09-29T04:21:16.059Z,0.00
2022-09-29T04:22:16.049Z,0.00
2022-09-29T04:23:16.035Z,0.00
2022-09-29T04:24:16.038Z,0.00
2022-09-29T04:25:16.018Z,0.00
2022-09-29T04:26:15.998Z,0.00
2022-09-29T04:27:15.988Z,0.00
2022-09-29T04:28:15.974Z,0.00
2022-09-29T04:29:16.039Z,0.00
2022-09-29T04:30:15.957Z,0.00
2022-09-29T04:31:16.071Z,0.00
2022-09-29T04:32:16.287Z,0.00
2022-09-29T04:33:15.937Z,0.00
2022-09-29T04:34:18.931Z,0.00
2022-09-29T04:35:15.916Z,0.00
2022-09-29T04:36:15.886Z,0.00
2022-09-29T04:37:15.875Z,0.00
2022-09-29T04:38:15.867Z,0.00
2022-09-29T04:39:15.880Z,0.00
2022-09-29T04:40:15.871Z,0.00
2022-09-29T04:41:15.841Z,0.00
2022-09-29T04:42:15.825Z,0.00
2022-09-29T04:43:15.816Z,0.00
2022-09-29T04:44:15.795Z,0.00
2022-09-29T04:45:15.788Z,0.00
2022-09-29T04:46:15.877Z,0.00
2022-09-29T04:47:15.769Z,0.00
2022-09-29T04:48:15.754Z,0.00
2022-09-29T04:49:15.744Z,0.00
2022-09-29T04:50:15.733Z,0.00
2022-09-29T04:51:15.731Z,0.00
2022-09-29T04:52:15.738Z,0.00
2022-09-29T04:53:15.699Z,0.00
2022-09-29T04:54:15.684Z,0.00
2022-09-29T04:55:15.685Z,0.00
2022-09-29T04:56:15.664Z,0.00
2022-09-29T04:57:15.654Z,0.00
2022-09-29T04:58:15.662Z,0.00
2022-09-29T04:59:15.653Z,0.00
2022-09-29T05:00:15.634Z,0.00
2022-09-29T05:01:15.730Z,0.00
2022-09-29T05:02:15.632Z,0.00
2022-09-29T05:03:15.591Z,0.00
2022-09-29T05:04:15.594Z,0.00
2022-09-29T05:05:15.563Z,0.00
2022-09-29T05:06:15.553Z,0.00
2022-09-29T05:07:15.543Z,0.00
2022-09-29T05:08:15.532Z,0.00
2022-09-29T05:09:16.120Z,0.00
2022-09-29T05:10:15.503Z,0.00
2022-09-29T05:11:15.504Z,0.00
2022-09-29T05:12:15.494Z,0.00
2022-09-29T05:13:15.474Z,0.00
2022-09-29T05:14:15.464Z,0.00
2022-09-29T05:15:15.502Z,0.00
2022-09-29T05:16:15.488Z,0.00
2022-09-29T05:17:15.435Z,5.62
2022-09-29T05:18:15.414Z,5.62
2022-09-29T05:19:15.481Z,5.62
2022-09-29T05:20:15.394Z,5.62
2022-09-29T05:21:27.539Z,5.62
2022-09-29T05:22:16.393Z,5.62
2022-09-29T05:23:15.362Z,5.62
2022-09-29T05:24:15.357Z,5.62
2022-09-29T05:25:15.343Z,5.62
2022-09-29T05:26:15.325Z,11.25
2022-09-29T05:27:15.333Z,11.25
2022-09-29T05:28:15.302Z,11.25
2022-09-29T05:29:15.320Z,11.25
2022-09-29T05:30:15.285Z,11.25
2022-09-29T05:31:15.375Z,11.25
2022-09-29T05:32:15.332Z,16.88
2022-09-29T05:33:15.262Z,16.88
2022-09-29T05:34:15.231Z,16.88
2022-09-29T05:35:15.225Z,16.88
2022-09-29T05:36:15.213Z,22.50
2022-09-29T05:37:15.202Z,22.50
2022-09-29T05:38:15.210Z,22.50
2022-09-29T05:39:15.274Z,22.50
2022-09-29T05:40:15.163Z,28.12
2022-09-29T05:41:15.162Z,28.12
2022-09-29T05:42:15.192Z,28.12
2022-09-29T05:43:15.151Z,28.12
2022-09-29T05:44:15.142Z,33.75
2022-09-29T05:45:15.113Z,33.75
2022-09-29T05:46:15.169Z,39.38
2022-09-29T05:47:15.090Z,39.38
2022-09-29T05:48:15.133Z,45.00
2022-09-29T05:49:15.124Z,45.00
2022-09-29T05:50:15.076Z,45.00
2022-09-29T05:51:17.469Z,45.00
2022-09-29T05:52:16.030Z,45.00
2022-09-29T05:53:15.089Z,50.62
2022-09-29T05:54:15.001Z,50.62
2022-09-29T05:55:15.002Z,56.25
2022-09-29T05:56:15.002Z,56.25
2022-09-29T05:57:14.982Z,56.25
2022-09-29T05:58:14.951Z,56.25
2022-09-29T05:59:15.040Z,56.25
2022-09-29T06:00:14.932Z,56.25
2022-09-29T06:01:15.000Z,56.25
2022-09-29T06:02:14.976Z,56.25
2022-09-29T06:03:14.982Z,61.88
2022-09-29T06:04:14.910Z,61.88
2022-09-29T06:05:14.933Z,67.50
2022-09-29T06:06:14.864Z,67.50
2022-09-29T06:07:14.869Z,73.12
2022-09-29T06:08:14.865Z,78.75
2022-09-29T06:09:14.923Z,78.75
2022-09-29T06:10:14.838Z,78.75
2022-09-29T06:11:14.819Z,78.75
2022-09-29T06:12:17.704Z,84.38
2022-09-29T06:13:15.892Z,90.00
2022-09-29T06:14:14.793Z,95.62
2022-09-29T06:15:14.858Z,101.25
2022-09-29T06:16:14.813Z,101.25
2022-09-29T06:17:14.791Z,106.88
2022-09-29T06:18:14.801Z,101.25
2022-09-29T06:19:14.815Z,101.25
2022-09-29T06:20:14.721Z,95.62
2022-09-29T06:21:14.744Z,95.62
2022-09-29T06:22:14.705Z,101.25
2022-09-29T06:23:14.683Z,112.50
2022-09-29T06:24:14.840Z,118.12
2022-09-29T06:25:14.764Z,118.12
2022-09-29T06:26:14.724Z,118.12
2022-09-29T06:27:14.662Z,123.75
2022-09-29T06:28:14.680Z,129.38
2022-09-29T06:29:14.635Z,129.38
2022-09-29T06:30:14.618Z,135.00
2022-09-29T06:31:14.659Z,135.00
2022-09-29T06:32:14.617Z,135.00
2022-09-29T06:33:14.591Z,135.00
2022-09-29T06:34:14.581Z,140.62
2022-09-29T06:35:14.549Z,146.25
2022-09-29T06:36:14.627Z,146.25
2022-09-29T06:37:14.600Z,151.88
2022-09-29T06:38:14.530Z,157.50
2022-09-29T06:39:14.510Z,157.50
2022-09-29T06:40:14.487Z,163.12
2022-09-29T06:41:14.469Z,163.12
2022-09-29T06:42:14.469Z,163.12
2022-09-29T06:43:14.450Z,163.12
2022-09-29T06:44:14.428Z,163.12
2022-09-29T06:45:14.420Z,163.12
2022-09-29T06:46:14.475Z,163.12
2022-09-29T06:47:14.450Z,157.50
2022-09-29T06:48:14.409Z,146.25
2022-09-29T06:49:14.384Z,146.25
2022-09-29T06:50:17.178Z,140.62
2022-09-29T06:51:15.364Z,146.25
2022-09-29T06:52:19.662Z,146.25
2022-09-29T06:53:15.393Z,151.88
2022-09-29T06:54:14.339Z,151.88
2022-09-29T06:55:14.307Z,146.25
2022-09-29T06:56:14.290Z,146.25
2022-09-29T06:57:14.288Z,151.88
2022-09-29T06:58:14.313Z,157.50
2022-09-29T06:59:14.276Z,168.75
2022-09-29T07:00:14.254Z,180.00
2022-09-29T07:01:14.355Z,180.00
2022-09-29T07:02:14.274Z,180.00
2022-09-29T07:03:14.222Z,174.38
2022-09-29T07:04:14.233Z,168.75
2022-09-29T07:05:14.197Z,151.88
2022-09-29T07:06:20.356Z,146.25
2022-09-29T07:07:15.171Z,140.62
2022-09-29T07:08:14.161Z,140.62
2022-09-29T07:09:14.171Z,140.62
2022-09-29T07:10:14.160Z,151.88
2022-09-29T07:11:14.129Z,180.00
2022-09-29T07:12:14.108Z,208.12
2022-09-29T07:13:14.100Z,196.88
2022-09-29T07:14:14.111Z,185.62
2022-09-29T07:15:14.141Z,185.62
2022-09-29T07:16:14.160Z,185.62
2022-09-29T07:17:14.072Z,196.88
2022-09-29T07:18:14.039Z,219.38
2022-09-29T07:19:14.056Z,253.12
2022-09-29T07:20:14.028Z,281.25
2022-09-29T07:21:14.042Z,309.38
2022-09-29T07:22:14.002Z,320.62
2022-09-29T07:23:13.998Z,320.62
2022-09-29T07:24:13.978Z,303.75
2022-09-29T07:25:27.881Z,326.25
2022-09-29T07:26:14.977Z,326.25
2022-09-29T07:27:13.940Z,320.62
2022-09-29T07:28:14.001Z,315.00
2022-09-29T07:29:15.886Z,309.38
2022-09-29T07:30:13.908Z,303.75
2022-09-29T07:31:15.253Z,298.12
2022-09-29T07:32:25.517Z,309.38
2022-09-29T07:33:14.910Z,320.62
2022-09-29T07:34:13.868Z,331.88
2022-09-29T07:35:13.870Z,331.88
2022-09-29T07:36:13.847Z,331.88
2022-09-29T07:37:13.830Z,320.62
2022-09-29T07:38:13.838Z,309.38
2022-09-29T07:39:13.800Z,303.75
2022-09-29T07:40:13.848Z,303.75
2022-09-29T07:41:13.791Z,292.50
2022-09-29T07:42:13.776Z,292.50
2022-09-29T07:43:13.795Z,309.38
2022-09-29T07:44:13.880Z,309.38
2022-09-29T07:45:13.737Z,303.75
2022-09-29T07:46:13.852Z,298.12
2022-09-29T07:47:13.748Z,286.88
2022-09-29T07:48:13.709Z,281.25
2022-09-29T07:49:13.718Z,315.00
2022-09-29T07:50:13.691Z,326.25
2022-09-29T07:51:13.670Z,303.75
2022-09-29T07:52:13.757Z,326.25
2022-09-29T07:53:13.662Z,326.25
2022-09-29T07:54:13.648Z,343.12
2022-09-29T07:55:13.656Z,348.75
2022-09-29T07:56:13.690Z,331.88
2022-09-29T07:57:13.619Z,354.38
2022-09-29T07:58:13.595Z,371.25
2022-09-29T07:59:13.591Z,371.25
2022-09-29T08:00:13.579Z,360.00
2022-09-29T08:01:13.676Z,382.50
2022-09-29T08:02:13.619Z,405.00
2022-09-29T08:03:13.534Z,416.25
2022-09-29T08:04:13.520Z,433.12
2022-09-29T08:05:13.508Z,438.75
2022-09-29T08:06:13.519Z,433.12
2022-09-29T08:07:13.489Z,427.50
2022-09-29T08:08:13.484Z,410.62
2022-09-29T08:09:13.458Z,393.75
2022-09-29T08:10:17.376Z,376.88
2022-09-29T08:11:20.989Z,365.62
2022-09-29T08:12:14.538Z,354.38
2022-09-29T08:13:13.437Z,360.00
2022-09-29T08:14:13.489Z,348.75
2022-09-29T08:15:13.391Z,337.50
2022-09-29T08:16:13.417Z,337.50
2022-09-29T08:17:13.379Z,348.75
2022-09-29T08:18:13.421Z,360.00
2022-09-29T08:20:13.340Z,365.62
2022-09-29T08:21:13.319Z,371.25
2022-09-29T08:22:13.319Z,376.88
2022-09-29T08:23:13.305Z,388.12
2022-09-29T08:24:13.371Z,399.38
2022-09-29T08:25:13.287Z,393.75
2022-09-29T08:26:13.275Z,393.75
2022-09-29T08:27:18.531Z,371.25
2022-09-29T08:28:21.261Z,365.62
2022-09-29T08:29:16.876Z,371.25
2022-09-29T08:30:13.228Z,376.88
2022-09-29T08:31:13.207Z,388.12
2022-09-29T08:32:13.294Z,433.12
2022-09-29T08:33:13.187Z,466.88
2022-09-29T08:34:13.442Z,478.12
2022-09-29T08:35:13.178Z,500.62
2022-09-29T08:36:13.160Z,523.12
2022-09-29T08:37:13.137Z,540.00
2022-09-29T08:38:13.136Z,489.38
2022-09-29T08:39:13.139Z,573.75
2022-09-29T08:40:13.150Z,568.12
2022-09-29T08:41:13.092Z,556.88
2022-09-29T08:42:13.093Z,562.50
2022-09-29T08:43:13.764Z,534.38
2022-09-29T08:44:29.853Z,489.38
2022-09-29T08:45:16.480Z,461.25
2022-09-29T08:46:13.195Z,438.75
2022-09-29T08:47:13.127Z,421.88
2022-09-29T08:48:21.757Z,405.00
2022-09-29T08:49:20.593Z,399.38
2022-09-29T08:50:13.998Z,337.50
2022-09-29T08:51:13.019Z,376.88
2022-09-29T08:52:16.893Z,360.00
2022-09-29T08:53:20.692Z,365.62
2022-09-29T08:54:14.010Z,371.25
2022-09-29T08:55:19.840Z,399.38
2022-09-29T08:56:13.949Z,410.62
2022-09-29T08:57:12.909Z,416.25
2022-09-29T08:58:12.903Z,433.12
2022-09-29T08:59:12.890Z,455.62
2022-09-29T09:00:12.893Z,489.38
2022-09-29T09:01:12.937Z,511.88
2022-09-29T09:02:12.927Z,551.25
2022-09-29T09:03:12.856Z,545.62
2022-09-29T09:04:12.934Z,528.75
2022-09-29T09:05:12.826Z,523.12
2022-09-29T09:06:12.867Z,506.25
2022-09-29T09:07:12.803Z,472.50
2022-09-29T09:08:12.852Z,495.00
2022-09-29T09:09:12.813Z,478.12
2022-09-29T09:10:12.760Z,478.12
2022-09-29T09:11:12.747Z,483.75
2022-09-29T09:12:19.828Z,455.62
2022-09-29T09:13:12.748Z,466.88
2022-09-29T09:14:12.718Z,466.88
2022-09-29T09:15:12.698Z,489.38
2022-09-29T09:16:12.750Z,511.88
2022-09-29T09:17:12.681Z,540.00
2022-09-29T09:18:12.670Z,562.50
2022-09-29T09:19:12.703Z,585.00
2022-09-29T09:20:12.654Z,556.88
2022-09-29T09:21:12.638Z,585.00
2022-09-29T09:22:12.626Z,573.75
2022-09-29T09:23:12.609Z,562.50
2022-09-29T09:24:12.652Z,601.88
2022-09-29T09:25:12.611Z,590.62
2022-09-29T09:26:12.579Z,517.50
2022-09-29T09:27:12.570Z,534.38
2022-09-29T09:28:12.560Z,523.12
2022-09-29T09:29:12.540Z,472.50
2022-09-29T09:30:12.540Z,360.00
2022-09-29T09:31:12.579Z,433.12
2022-09-29T09:32:12.528Z,545.62
2022-09-29T09:33:17.526Z,579.38
2022-09-29T09:34:13.491Z,579.38
2022-09-29T09:35:23.058Z,601.88
2022-09-29T09:36:16.436Z,618.75
2022-09-29T09:37:13.449Z,601.88
2022-09-29T09:38:12.447Z,630.00
2022-09-29T09:39:12.428Z,613.12
2022-09-29T09:40:12.419Z,601.88
2022-09-29T09:41:12.446Z,618.75
2022-09-29T09:42:12.398Z,641.25
2022-09-29T09:43:12.389Z,613.12
2022-09-29T09:44:12.372Z,585.00
2022-09-29T09:45:12.360Z,540.00
2022-09-29T09:46:12.470Z,511.88
2022-09-29T09:47:12.349Z,466.88
2022-09-29T09:48:12.329Z,461.25
2022-09-29T09:49:12.343Z,478.12
2022-09-29T09:50:12.299Z,495.00
2022-09-29T09:51:12.292Z,528.75
2022-09-29T09:53:15.223Z,523.12
2022-09-29T09:54:12.303Z,568.12
2022-09-29T09:55:12.241Z,607.50
2022-09-29T09:56:12.247Z,613.12
2022-09-29T09:57:12.224Z,590.62
2022-09-29T09:58:12.230Z,590.62
2022-09-29T09:59:12.286Z,568.12
2022-09-29T10:00:12.224Z,585.00
2022-09-29T10:01:12.305Z,618.75
2022-09-29T10:02:12.204Z,635.62
2022-09-29T10:03:12.150Z,630.00
2022-09-29T10:04:12.170Z,691.88
2022-09-29T10:05:12.140Z,725.62
2022-09-29T10:06:12.122Z,736.88
2022-09-29T10:07:12.110Z,843.75
2022-09-29T10:08:12.103Z,900.00
2022-09-29T10:09:12.179Z,922.50
2022-09-29T10:10:12.151Z,838.12
2022-09-29T10:11:12.060Z,703.12
2022-09-29T10:12:12.051Z,601.88
2022-09-29T10:13:12.041Z,568.12
2022-09-29T10:14:12.034Z,568.12
2022-09-29T10:15:12.039Z,573.75
2022-09-29T10:16:12.080Z,573.75
2022-09-29T10:17:11.993Z,551.25
2022-09-29T10:18:11.991Z,545.62
2022-09-29T10:19:12.017Z,534.38
2022-09-29T10:20:12.043Z,528.75
2022-09-29T10:21:11.993Z,528.75
2022-09-29T10:22:11.982Z,523.12
2022-09-29T10:23:11.922Z,511.88
2022-09-29T10:24:11.920Z,511.88
2022-09-29T10:25:11.902Z,523.12
2022-09-29T10:26:11.893Z,534.38
2022-09-29T10:27:11.902Z,540.00
2022-09-29T10:28:11.873Z,545.62
2022-09-29T10:29:11.863Z,556.88
2022-09-29T10:30:11.854Z,573.75
2022-09-29T10:31:11.859Z,596.25
2022-09-29T10:32:11.858Z,635.62
2022-09-29T10:33:11.812Z,652.50
2022-09-29T10:34:11.802Z,646.88
2022-09-29T10:35:11.784Z,658.12
2022-09-29T10:36:11.783Z,680.62
2022-09-29T10:37:11.767Z,691.88
2022-09-29T10:38:11.773Z,680.62
2022-09-29T10:39:11.745Z,663.75
2022-09-29T10:40:11.733Z,646.88
2022-09-29T10:41:11.725Z,646.88
2022-09-29T10:42:11.713Z,658.12
2022-09-29T10:43:11.766Z,680.62
2022-09-29T10:44:11.769Z,703.12
2022-09-29T10:45:11.674Z,697.50
2022-09-29T10:46:11.715Z,697.50
2022-09-29T10:47:11.650Z,686.25
2022-09-29T10:48:11.643Z,675.00
2022-09-29T10:49:11.753Z,675.00
2022-09-29T10:50:11.614Z,669.38
2022-09-29T10:51:11.603Z,658.12
2022-09-29T10:52:11.627Z,652.50
2022-09-29T10:53:13.141Z,635.62
2022-09-29T10:54:11.583Z,624.38
2022-09-29T10:55:11.583Z,607.50
2022-09-29T10:56:11.544Z,585.00
2022-09-29T10:57:11.536Z,573.75
2022-09-29T10:58:11.536Z,568.12
2022-09-29T10:59:11.516Z,562.50
2022-09-29T11:00:11.524Z,551.25
2022-09-29T11:01:11.534Z,556.88
2022-09-29T11:02:11.515Z,562.50
2022-09-29T11:03:11.465Z,545.62
2022-09-29T11:04:11.483Z,534.38
2022-09-29T11:05:11.465Z,528.75
2022-09-29T11:06:11.445Z,534.38
2022-09-29T11:07:11.427Z,534.38
2022-09-29T11:08:11.414Z,545.62
2022-09-29T11:09:11.443Z,551.25
2022-09-29T11:10:11.394Z,551.25
2022-09-29T11:11:11.398Z,551.25
2022-09-29T11:12:11.365Z,551.25
2022-09-29T11:13:11.363Z,556.88
2022-09-29T11:14:11.347Z,562.50
2022-09-29T11:15:11.333Z,573.75
2022-09-29T11:16:11.316Z,585.00
2022-09-29T11:17:11.335Z,590.62
2022-09-29T11:19:11.295Z,601.88
2022-09-29T11:20:11.275Z,601.88
2022-09-29T11:21:11.276Z,607.50
2022-09-29T11:22:11.256Z,607.50
2022-09-29T11:23:11.268Z,607.50
2022-09-29T11:24:11.231Z,601.88
2022-09-29T11:25:11.219Z,607.50
2022-09-29T11:26:11.206Z,613.12
2022-09-29T11:27:11.196Z,613.12
2022-09-29T11:28:11.185Z,613.12
2022-09-29T11:29:11.188Z,613.12
2022-09-29T11:30:11.166Z,613.12
2022-09-29T11:31:11.149Z,613.12
2022-09-29T11:32:12.917Z,607.50
2022-09-29T11:33:11.125Z,607.50
2022-09-29T11:34:11.135Z,607.50
2022-09-29T11:35:11.112Z,607.50
2022-09-29T11:36:11.098Z,613.12
2022-09-29T11:37:11.087Z,613.12
2022-09-29T11:38:11.068Z,613.12
2022-09-29T11:39:11.058Z,607.50
2022-09-29T11:40:11.069Z,613.12
2022-09-29T11:41:11.029Z,618.75
2022-09-29T11:42:11.019Z,624.38
2022-09-29T11:43:11.017Z,635.62
2022-09-29T11:44:11.141Z,630.00
2022-09-29T11:45:11.074Z,624.38
2022-09-29T11:46:11.000Z,618.75
2022-09-29T11:47:10.969Z,613.12
2022-09-29T11:48:10.972Z,607.50
2022-09-29T11:49:10.945Z,601.88
2022-09-29T11:50:10.936Z,596.25
2022-09-29T11:51:10.938Z,596.25
2022-09-29T11:52:10.924Z,596.25
2022-09-29T11:53:10.908Z,601.88
2022-09-29T11:54:10.885Z,601.88
2022-09-29T11:55:10.878Z,601.88
2022-09-29T11:56:10.868Z,607.50
2022-09-29T11:57:10.870Z,607.50
2022-09-29T11:58:10.839Z,607.50
2022-09-29T11:59:10.857Z,596.25
2022-09-29T12:00:10.818Z,590.62
2022-09-29T12:01:10.808Z,585.00
2022-09-29T12:02:10.866Z,579.38
2022-09-29T12:03:10.914Z,579.38
2022-09-29T12:04:10.769Z,579.38
2022-09-29T12:05:10.768Z,590.62
2022-09-29T12:06:10.739Z,601.88
2022-09-29T12:07:10.863Z,607.50
2022-09-29T12:08:10.719Z,618.75
2022-09-29T12:09:10.766Z,618.75
2022-09-29T12:10:10.701Z,613.12
2022-09-29T12:11:37.664Z,607.50
2022-09-29T12:12:23.082Z,613.12
2022-09-29T12:13:11.669Z,624.38
2022-09-29T12:14:10.713Z,630.00
2022-09-29T12:15:10.700Z,641.25
2022-09-29T12:16:10.633Z,652.50
2022-09-29T12:17:10.719Z,658.12
2022-09-29T12:18:10.609Z,663.75
2022-09-29T12:19:10.597Z,669.38
2022-09-29T12:20:10.583Z,669.38
2022-09-29T12:21:14.188Z,675.00
2022-09-29T12:22:11.554Z,675.00
2022-09-29T12:23:10.552Z,675.00
2022-09-29T12:24:10.531Z,675.00
2022-09-29T12:25:10.531Z,675.00
2022-09-29T12:26:10.539Z,680.62
2022-09-29T12:27:10.514Z,680.62
2022-09-29T12:28:10.482Z,675.00
2022-09-29T12:29:10.481Z,675.00
2022-09-29T12:30:10.464Z,680.62
2022-09-29T12:31:10.472Z,680.62
2022-09-29T12:32:10.461Z,686.25
2022-09-29T12:33:10.441Z,680.62
2022-09-29T12:34:10.420Z,675.00
2022-09-29T12:35:10.412Z,675.00
2022-09-29T12:36:10.422Z,680.62
2022-09-29T12:37:10.412Z,675.00
2022-09-29T12:38:10.378Z,675.00
2022-09-29T12:39:10.485Z,675.00
2022-09-29T12:40:10.351Z,675.00
2022-09-29T12:41:10.343Z,669.38
2022-09-29T12:42:10.333Z,663.75
2022-09-29T12:43:10.344Z,658.12
2022-09-29T12:44:10.303Z,663.75
2022-09-29T12:45:11.347Z,663.75
2022-09-29T12:46:10.382Z,675.00
2022-09-29T12:47:10.281Z,663.75
2022-09-29T12:48:10.291Z,663.75
2022-09-29T12:49:10.273Z,663.75
2022-09-29T12:50:10.297Z,675.00
2022-09-29T12:51:10.253Z,669.38
2022-09-29T12:52:10.222Z,658.12
2022-09-29T12:53:10.344Z,658.12